Chillicothe, IA (52548)

3:42 PM CDT on June 20, 2018 (GMT -0500)
Ottumwa Industrial | | Change Station
Active Advisory: Tornado Watch

Elev 843 ft 41.11 °N, 92.45 °W | Updated 19 minutes ago

Partly Cloudy
Partly Cloudy
73 °F
Feels Like 73 °F
N
4
Wind Variable Wind from ENE

Today
High -- | Low -- °F
--% Chance of Precip.
Yesterday
High -- | Low -- °F
Precip. -- in
Pressure 29.74 in
Visibility 10.0 miles
Clouds Scattered Clouds 11000 ft
Dew Point 69 °F
Humidity 87%
Rainfall 0.66 in
Snow Depth Not available.
5:37 AM 8:45 PM
First Quarter, 55% visible
SPECI KOTM 202023Z AUTO 06003KT 10SM SCT110 23/21 A2974 RMK AO2 WSHFT 1940 LTG DSNT N-E RAE18 P0001 T02280206
Pressure 29.74 in
Visibility 10.0 miles
Clouds Scattered Clouds 11000 ft
Dew Point 69 °F
Humidity 87%
Rainfall 0.66 in
Snow Depth Not available.
5:37 AM 8:45 PM
First Quarter, 55% visible
SPECI KOTM 202023Z AUTO 06003KT 10SM SCT110 23/21 A2974 RMK AO2 WSHFT 1940 LTG DSNT N-E RAE18 P0001 T02280206

Get Your Daily Forecast Email!

Thanks for signing up!

Be on the lookout for a verification email in your inbox.

You'll start receiving severe weather alerts in your inbox..

×

10-Day Weather Forecast

Almanac

Astronomy

Jun. 20, 2018 Rise Set
Actual Time
Civil Twilight
Nautical Twilight
Astronomical Twilight
Moon
Length of Visible Light
Length of Day
Tomorrow will be .
, % of the Moon is Illuminated

Today's Extremes

State Highs State Lows

Community

WunderPhotos

Category 6

Welcome to Category 6. This is the collective home for Weather Underground's featured writeups by Dr. Jeff Masters (right), Bob Henson (left), Chris Burt, and other regular contributors.

Nearby

Air Quality

  Air Quality AQ Index Pollutant
Not available.

Snow Depth

Station Depth Elevation

Earthquake Activity

City Distance Mag. Time & Date
Minimum magnitude displayed is 2.5.

Coastal Water Temperatures

Place Temperature

Stations

Nearby Weather Stations

Station Location Temp. Windchill Dew Point Humidity Wind Precip. Elev Updated Type
                   

Watches & Warnings

Tornado Watch
Issued: 3:33 PM CDT Jun. 20, 2018 – National Weather Service

Tornado Watch 195 remains in effect until 700 PM CDT for the
following locations


IA
. Iowa counties included are

Benton Black Hawk Boone
Bremer Buchanan Butler
Cedar Dallas Delaware
Des Moines Franklin Greene
Grundy Hamilton Hardin
Henry Humboldt Iowa
Jasper Jefferson Johnson
Jones Keokuk Linn
Louisa Mahaska Marshall
Muscatine Polk Poweshiek
story Tama Wapello
Washington Webster Wright